sensor_id;sensor_type;location;lat;lon;timestamp;temperature;humidity
75705;DHT22;64391;44.686;37.628;2022-11-12T00:00:05;7.96;91.71
75705;DHT22;64391;44.686;37.628;2022-11-12T00:01:25;7.93;90.98
75705;DHT22;64391;44.686;37.628;2022-11-12T00:02:44;7.94;90.22
75705;DHT22;64391;44.686;37.628;2022-11-12T00:04:04;7.93;90.31
75705;DHT22;64391;44.686;37.628;2022-11-12T00:05:25;7.93;90.12
75705;DHT22;64391;44.686;37.628;2022-11-12T00:06:45;7.91;89.95
75705;DHT22;64391;44.686;37.628;2022-11-12T00:08:05;7.90;89.63
75705;DHT22;64391;44.686;37.628;2022-11-12T00:09:25;7.91;89.59
75705;DHT22;64391;44.686;37.628;2022-11-12T00:10:45;7.92;89.05
75705;DHT22;64391;44.686;37.628;2022-11-12T00:12:05;7.92;89.02
75705;DHT22;64391;44.686;37.628;2022-11-12T00:13:25;7.92;88.76
75705;DHT22;64391;44.686;37.628;2022-11-12T00:14:45;7.92;88.68
75705;DHT22;64391;44.686;37.628;2022-11-12T00:16:05;7.93;88.46
75705;DHT22;64391;44.686;37.628;2022-11-12T00:17:25;7.93;88.61
75705;DHT22;64391;44.686;37.628;2022-11-12T00:18:45;7.96;88.58
75705;DHT22;64391;44.686;37.628;2022-11-12T00:20:07;7.93;88.40
75705;DHT22;64391;44.686;37.628;2022-11-12T00:21:27;7.93;88.40
75705;DHT22;64391;44.686;37.628;2022-11-12T00:22:47;7.94;88.13
75705;DHT22;64391;44.686;37.628;2022-11-12T00:24:06;7.92;87.84
75705;DHT22;64391;44.686;37.628;2022-11-12T00:25:26;7.92;88.23
75705;DHT22;64391;44.686;37.628;2022-11-12T00:26:47;7.90;88.06
75705;DHT22;64391;44.686;37.628;2022-11-12T00:28:08;7.87;88.06
75705;DHT22;64391;44.686;37.628;2022-11-12T00:29:29;7.85;87.46
75705;DHT22;64391;44.686;37.628;2022-11-12T00:30:48;7.84;87.77
75705;DHT22;64391;44.686;37.628;2022-11-12T00:32:09;7.84;87.99
75705;DHT22;64391;44.686;37.628;2022-11-12T00:33:29;7.79;88.09
75705;DHT22;64391;44.686;37.628;2022-11-12T00:34:49;7.78;87.64
75705;DHT22;64391;44.686;37.628;2022-11-12T00:36:10;7.75;87.54
75705;DHT22;64391;44.686;37.628;2022-11-12T00:37:30;7.70;87.87
75705;DHT22;64391;44.686;37.628;2022-11-12T00:38:50;7.65;87.99
75705;DHT22;64391;44.686;37.628;2022-11-12T00:40:10;7.64;88.15
75705;DHT22;64391;44.686;37.628;2022-11-12T00:41:30;7.58;88.16
75705;DHT22;64391;44.686;37.628;2022-11-12T00:42:51;7.54;88.50
75705;DHT22;64391;44.686;37.628;2022-11-12T00:44:11;7.50;88.23
75705;DHT22;64391;44.686;37.628;2022-11-12T00:45:31;7.48;88.36
75705;DHT22;64391;44.686;37.628;2022-11-12T00:46:50;7.47;88.31
75705;DHT22;64391;44.686;37.628;2022-11-12T00:48:10;7.46;88.49
75705;DHT22;64391;44.686;37.628;2022-11-12T00:49:30;7.43;88.65
75705;DHT22;64391;44.686;37.628;2022-11-12T00:50:50;7.39;88.58
75705;DHT22;64391;44.686;37.628;2022-11-12T00:52:10;7.38;88.36
75705;DHT22;64391;44.686;37.628;2022-11-12T00:53:30;7.37;88.73
75705;DHT22;64391;44.686;37.628;2022-11-12T00:54:51;7.35;88.64
75705;DHT22;64391;44.686;37.628;2022-11-12T00:56:11;7.31;88.58
75705;DHT22;64391;44.686;37.628;2022-11-12T00:57:30;7.25;88.57
75705;DHT22;64391;44.686;37.628;2022-11-12T00:58:50;7.22;88.75
75705;DHT22;64391;44.686;37.628;2022-11-12T01:00:15;7.18;88.80
75705;DHT22;64391;44.686;37.628;2022-11-12T01:01:35;7.16;89.16
75705;DHT22;64391;44.686;37.628;2022-11-12T01:02:56;7.13;89.25
75705;DHT22;64391;44.686;37.628;2022-11-12T01:04:15;7.13;88.96
75705;DHT22;64391;44.686;37.628;2022-11-12T01:05:35;7.09;89.14
75705;DHT22;64391;44.686;37.628;2022-11-12T01:06:55;7.05;89.07
75705;DHT22;64391;44.686;37.628;2022-11-12T01:08:15;7.01;89.40
75705;DHT22;64391;44.686;37.628;2022-11-12T01:09:35;6.99;89.32
75705;DHT22;64391;44.686;37.628;2022-11-12T01:10:55;6.97;89.62
75705;DHT22;64391;44.686;37.628;2022-11-12T01:12:15;6.96;89.73
75705;DHT22;64391;44.686;37.628;2022-11-12T01:13:36;6.91;89.57
75705;DHT22;64391;44.686;37.628;2022-11-12T01:14:56;6.87;89.77
75705;DHT22;64391;44.686;37.628;2022-11-12T01:16:21;6.86;89.92
75705;DHT22;64391;44.686;37.628;2022-11-12T01:17:41;6.82;89.86
75705;DHT22;64391;44.686;37.628;2022-11-12T01:19:03;6.81;90.01
75705;DHT22;64391;44.686;37.628;2022-11-12T01:20:23;6.83;90.02
75705;DHT22;64391;44.686;37.628;2022-11-12T01:21:44;6.82;89.97
75705;DHT22;64391;44.686;37.628;2022-11-12T01:23:05;6.80;90.09
75705;DHT22;64391;44.686;37.628;2022-11-12T01:24:25;6.75;89.98
75705;DHT22;64391;44.686;37.628;2022-11-12T01:25:45;6.73;90.10
75705;DHT22;64391;44.686;37.628;2022-11-12T01:27:05;6.75;90.16
75705;DHT22;64391;44.686;37.628;2022-11-12T01:28:25;6.75;90.16
75705;DHT22;64391;44.686;37.628;2022-11-12T01:29:45;6.74;90.26
75705;DHT22;64391;44.686;37.628;2022-11-12T01:31:18;6.78;89.94
75705;DHT22;64391;44.686;37.628;2022-11-12T01:32:38;6.75;90.05
75705;DHT22;64391;44.686;37.628;2022-11-12T01:34:04;6.75;89.84
75705;DHT22;64391;44.686;37.628;2022-11-12T01:35:24;6.71;89.87
75705;DHT22;64391;44.686;37.628;2022-11-12T01:36:44;6.69;89.95
75705;DHT22;64391;44.686;37.628;2022-11-12T01:38:04;6.66;90.12
75705;DHT22;64391;44.686;37.628;2022-11-12T01:39:23;6.64;90.17
75705;DHT22;64391;44.686;37.628;2022-11-12T01:40:43;6.63;90.24
75705;DHT22;64391;44.686;37.628;2022-11-12T01:42:03;6.60;90.21
75705;DHT22;64391;44.686;37.628;2022-11-12T01:43:23;6.56;90.28
75705;DHT22;64391;44.686;37.628;2022-11-12T01:44:44;6.55;90.34
75705;DHT22;64391;44.686;37.628;2022-11-12T01:46:15;6.52;90.69
75705;DHT22;64391;44.686;37.628;2022-11-12T01:47:37;6.53;90.64
75705;DHT22;64391;44.686;37.628;2022-11-12T01:49:11;6.53;90.47
75705;DHT22;64391;44.686;37.628;2022-11-12T01:50:34;6.53;90.56
75705;DHT22;64391;44.686;37.628;2022-11-12T01:51:58;6.51;90.66
75705;DHT22;64391;44.686;37.628;2022-11-12T01:53:25;6.50;90.47
75705;DHT22;64391;44.686;37.628;2022-11-12T01:54:49;6.50;90.68
75705;DHT22;64391;44.686;37.628;2022-11-12T01:56:11;6.50;90.58
75705;DHT22;64391;44.686;37.628;2022-11-12T01:57:48;6.49;90.86
75705;DHT22;64391;44.686;37.628;2022-11-12T01:59:14;6.51;91.07
75705;DHT22;64391;44.686;37.628;2022-11-12T02:00:36;6.53;90.78
75705;DHT22;64391;44.686;37.628;2022-11-12T02:01:56;6.52;90.79
75705;DHT22;64391;44.686;37.628;2022-11-12T02:03:22;6.52;90.71
75705;DHT22;64391;44.686;37.628;2022-11-12T02:04:42;6.50;90.76
75705;DHT22;64391;44.686;37.628;2022-11-12T02:06:08;6.50;91.04
75705;DHT22;64391;44.686;37.628;2022-11-12T02:07:30;6.51;90.80
75705;DHT22;64391;44.686;37.628;2022-11-12T02:08:50;6.48;90.82
75705;DHT22;64391;44.686;37.628;2022-11-12T02:10:11;6.50;90.72
75705;DHT22;64391;44.686;37.628;2022-11-12T02:11:31;6.50;90.86
75705;DHT22;64391;44.686;37.628;2022-11-12T02:12:52;6.55;90.68
75705;DHT22;64391;44.686;37.628;2022-11-12T02:14:32;6.54;90.51
75705;DHT22;64391;44.686;37.628;2022-11-12T02:15:52;6.54;90.76
75705;DHT22;64391;44.686;37.628;2022-11-12T02:17:12;6.56;90.53
75705;DHT22;64391;44.686;37.628;2022-11-12T02:18:32;6.54;90.52
75705;DHT22;64391;44.686;37.628;2022-11-12T02:19:52;6.53;90.48
75705;DHT22;64391;44.686;37.628;2022-11-12T02:21:12;6.52;90.60
75705;DHT22;64391;44.686;37.628;2022-11-12T02:22:32;6.51;90.64
75705;DHT22;64391;44.686;37.628;2022-11-12T02:24:26;6.53;90.67
75705;DHT22;64391;44.686;37.628;2022-11-12T02:25:44;6.51;90.72
75705;DHT22;64391;44.686;37.628;2022-11-12T02:27:05;6.46;90.69
75705;DHT22;64391;44.686;37.628;2022-11-12T02:28:26;6.45;90.92
75705;DHT22;64391;44.686;37.628;2022-11-12T02:29:47;6.45;90.98
75705;DHT22;64391;44.686;37.628;2022-11-12T02:31:07;6.43;90.97
75705;DHT22;64391;44.686;37.628;2022-11-12T02:32:27;6.41;91.21
75705;DHT22;64391;44.686;37.628;2022-11-12T02:33:46;6.41;91.16
75705;DHT22;64391;44.686;37.628;2022-11-12T02:35:07;6.41;91.10
75705;DHT22;64391;44.686;37.628;2022-11-12T02:36:27;6.42;91.19
75705;DHT22;64391;44.686;37.628;2022-11-12T02:37:47;6.44;91.26
75705;DHT22;64391;44.686;37.628;2022-11-12T02:39:07;6.42;91.11
75705;DHT22;64391;44.686;37.628;2022-11-12T02:40:27;6.40;91.14
75705;DHT22;64391;44.686;37.628;2022-11-12T02:41:47;6.41;91.24
75705;DHT22;64391;44.686;37.628;2022-11-12T02:43:07;6.39;91.14
75705;DHT22;64391;44.686;37.628;2022-11-12T02:44:27;6.39;91.23
75705;DHT22;64391;44.686;37.628;2022-11-12T02:45:47;6.36;91.30
75705;DHT22;64391;44.686;37.628;2022-11-12T02:47:08;6.34;91.57
75705;DHT22;64391;44.686;37.628;2022-11-12T02:48:28;6.37;91.48
75705;DHT22;64391;44.686;37.628;2022-11-12T02:49:48;6.37;91.69
75705;DHT22;64391;44.686;37.628;2022-11-12T02:51:07;6.42;91.48
75705;DHT22;64391;44.686;37.628;2022-11-12T02:52:27;6.43;91.32
75705;DHT22;64391;44.686;37.628;2022-11-12T02:53:47;6.43;91.18
75705;DHT22;64391;44.686;37.628;2022-11-12T02:55:09;6.45;91.08
75705;DHT22;64391;44.686;37.628;2022-11-12T02:56:29;6.44;90.93
75705;DHT22;64391;44.686;37.628;2022-11-12T02:57:49;6.44;90.89
75705;DHT22;64391;44.686;37.628;2022-11-12T02:59:09;6.45;91.20
75705;DHT22;64391;44.686;37.628;2022-11-12T03:00:29;6.44;90.90
75705;DHT22;64391;44.686;37.628;2022-11-12T03:01:49;6.45;90.98
75705;DHT22;64391;44.686;37.628;2022-11-12T03:03:09;6.43;91.14
75705;DHT22;64391;44.686;37.628;2022-11-12T03:04:29;6.44;90.97
75705;DHT22;64391;44.686;37.628;2022-11-12T03:05:57;6.42;91.15
75705;DHT22;64391;44.686;37.628;2022-11-12T03:07:18;6.42;91.22
75705;DHT22;64391;44.686;37.628;2022-11-12T03:08:37;6.44;91.11
75705;DHT22;64391;44.686;37.628;2022-11-12T03:09:57;6.44;91.07
75705;DHT22;64391;44.686;37.628;2022-11-12T03:11:17;6.44;91.19
75705;DHT22;64391;44.686;37.628;2022-11-12T03:12:37;6.44;91.08
75705;DHT22;64391;44.686;37.628;2022-11-12T03:13:57;6.48;90.90
75705;DHT22;64391;44.686;37.628;2022-11-12T03:15:16;6.49;90.89
75705;DHT22;64391;44.686;37.628;2022-11-12T03:16:36;6.51;90.70
75705;DHT22;64391;44.686;37.628;2022-11-12T03:17:57;6.52;90.84
75705;DHT22;64391;44.686;37.628;2022-11-12T03:19:17;6.52;90.82
75705;DHT22;64391;44.686;37.628;2022-11-12T03:20:37;6.52;90.73
75705;DHT22;64391;44.686;37.628;2022-11-12T03:21:57;6.51;90.63
75705;DHT22;64391;44.686;37.628;2022-11-12T03:23:17;6.51;90.79
75705;DHT22;64391;44.686;37.628;2022-11-12T03:24:37;6.51;90.93
75705;DHT22;64391;44.686;37.628;2022-11-12T03:25:57;6.49;90.73
75705;DHT22;64391;44.686;37.628;2022-11-12T03:27:17;6.50;90.76
75705;DHT22;64391;44.686;37.628;2022-11-12T03:28:38;6.50;90.79
75705;DHT22;64391;44.686;37.628;2022-11-12T03:29:57;6.51;90.66
75705;DHT22;64391;44.686;37.628;2022-11-12T03:31:18;6.51;90.85
75705;DHT22;64391;44.686;37.628;2022-11-12T03:32:38;6.51;90.70
75705;DHT22;64391;44.686;37.628;2022-11-12T03:33:58;6.50;90.66
75705;DHT22;64391;44.686;37.628;2022-11-12T03:35:17;6.48;90.90
75705;DHT22;64391;44.686;37.628;2022-11-12T03:36:37;6.48;90.77
75705;DHT22;64391;44.686;37.628;2022-11-12T03:37:57;6.50;90.63
75705;DHT22;64391;44.686;37.628;2022-11-12T03:39:18;6.51;90.72
75705;DHT22;64391;44.686;37.628;2022-11-12T03:40:38;6.50;90.81
75705;DHT22;64391;44.686;37.628;2022-11-12T03:41:58;6.48;90.70
75705;DHT22;64391;44.686;37.628;2022-11-12T03:43:18;6.46;90.89
75705;DHT22;64391;44.686;37.628;2022-11-12T03:44:38;6.45;90.76
75705;DHT22;64391;44.686;37.628;2022-11-12T03:45:58;6.46;90.85
75705;DHT22;64391;44.686;37.628;2022-11-12T03:47:18;6.48;90.86
75705;DHT22;64391;44.686;37.628;2022-11-12T03:48:38;6.49;91.07
75705;DHT22;64391;44.686;37.628;2022-11-12T03:49:58;6.46;90.99
75705;DHT22;64391;44.686;37.628;2022-11-12T03:51:17;6.42;90.99
75705;DHT22;64391;44.686;37.628;2022-11-12T03:52:47;6.43;90.99
75705;DHT22;64391;44.686;37.628;2022-11-12T03:54:07;6.44;91.05
75705;DHT22;64391;44.686;37.628;2022-11-12T03:55:28;6.41;90.94
75705;DHT22;64391;44.686;37.628;2022-11-12T03:56:48;6.42;90.90
75705;DHT22;64391;44.686;37.628;2022-11-12T03:58:08;6.43;90.98
75705;DHT22;64391;44.686;37.628;2022-11-12T03:59:27;6.42;91.03
75705;DHT22;64391;44.686;37.628;2022-11-12T04:00:47;6.40;91.12
75705;DHT22;64391;44.686;37.628;2022-11-12T04:02:08;6.42;90.92
75705;DHT22;64391;44.686;37.628;2022-11-12T04:03:33;6.41;90.95
75705;DHT22;64391;44.686;37.628;2022-11-12T04:04:53;6.41;90.91
75705;DHT22;64391;44.686;37.628;2022-11-12T04:06:51;6.41;91.08
75705;DHT22;64391;44.686;37.628;2022-11-12T04:08:29;6.43;91.16
75705;DHT22;64391;44.686;37.628;2022-11-12T04:09:56;6.44;91.10
75705;DHT22;64391;44.686;37.628;2022-11-12T04:11:16;6.44;90.95
75705;DHT22;64391;44.686;37.628;2022-11-12T04:12:36;6.48;90.69
75705;DHT22;64391;44.686;37.628;2022-11-12T04:14:15;6.50;90.76
75705;DHT22;64391;44.686;37.628;2022-11-12T04:15:35;6.55;90.89
75705;DHT22;64391;44.686;37.628;2022-11-12T04:16:54;6.56;90.48
75705;DHT22;64391;44.686;37.628;2022-11-12T04:18:33;6.63;90.38
75705;DHT22;64391;44.686;37.628;2022-11-12T04:20:12;6.63;90.18
75705;DHT22;64391;44.686;37.628;2022-11-12T04:21:54;6.60;90.24
75705;DHT22;64391;44.686;37.628;2022-11-12T04:23:14;6.59;90.59
75705;DHT22;64391;44.686;37.628;2022-11-12T04:24:39;6.56;90.50
75705;DHT22;64391;44.686;37.628;2022-11-12T04:26:18;6.55;90.56
75705;DHT22;64391;44.686;37.628;2022-11-12T04:27:44;6.54;90.52
75705;DHT22;64391;44.686;37.628;2022-11-12T04:29:04;6.56;90.62
75705;DHT22;64391;44.686;37.628;2022-11-12T04:30:42;6.55;90.66
75705;DHT22;64391;44.686;37.628;2022-11-12T04:32:02;6.57;90.56
75705;DHT22;64391;44.686;37.628;2022-11-12T04:33:22;6.60;90.31
75705;DHT22;64391;44.686;37.628;2022-11-12T04:34:42;6.60;90.34
75705;DHT22;64391;44.686;37.628;2022-11-12T04:36:02;6.60;90.36
75705;DHT22;64391;44.686;37.628;2022-11-12T04:37:24;6.58;90.57
75705;DHT22;64391;44.686;37.628;2022-11-12T04:38:44;6.58;90.49
75705;DHT22;64391;44.686;37.628;2022-11-12T04:40:05;6.57;90.46
75705;DHT22;64391;44.686;37.628;2022-11-12T04:41:45;6.57;90.38
75705;DHT22;64391;44.686;37.628;2022-11-12T04:43:24;6.56;90.16
75705;DHT22;64391;44.686;37.628;2022-11-12T04:45:09;6.53;90.37
75705;DHT22;64391;44.686;37.628;2022-11-12T04:46:29;6.52;90.45
75705;DHT22;64391;44.686;37.628;2022-11-12T04:47:49;6.51;90.67
75705;DHT22;64391;44.686;37.628;2022-11-12T04:49:09;6.54;90.35
75705;DHT22;64391;44.686;37.628;2022-11-12T04:50:29;6.54;90.62
75705;DHT22;64391;44.686;37.628;2022-11-12T04:51:49;6.54;90.61
75705;DHT22;64391;44.686;37.628;2022-11-12T04:53:25;6.54;90.60
75705;DHT22;64391;44.686;37.628;2022-11-12T04:54:45;6.54;90.75
75705;DHT22;64391;44.686;37.628;2022-11-12T04:56:05;6.54;90.66
75705;DHT22;64391;44.686;37.628;2022-11-12T04:57:26;6.52;90.60
75705;DHT22;64391;44.686;37.628;2022-11-12T04:58:46;6.55;90.69
75705;DHT22;64391;44.686;37.628;2022-11-12T05:00:06;6.55;90.41
75705;DHT22;64391;44.686;37.628;2022-11-12T05:01:26;6.58;90.12
75705;DHT22;64391;44.686;37.628;2022-11-12T05:02:48;6.58;89.86
75705;DHT22;64391;44.686;37.628;2022-11-12T05:04:09;6.57;89.51
75705;DHT22;64391;44.686;37.628;2022-11-12T05:05:29;6.59;89.86
75705;DHT22;64391;44.686;37.628;2022-11-12T05:06:49;6.61;89.95
75705;DHT22;64391;44.686;37.628;2022-11-12T05:08:11;6.68;90.15
75705;DHT22;64391;44.686;37.628;2022-11-12T05:09:31;6.73;90.28
75705;DHT22;64391;44.686;37.628;2022-11-12T05:10:52;6.78;90.34
75705;DHT22;64391;44.686;37.628;2022-11-12T05:12:11;6.82;90.49
75705;DHT22;64391;44.686;37.628;2022-11-12T05:13:31;6.89;90.22
75705;DHT22;64391;44.686;37.628;2022-11-12T05:14:51;6.96;89.82
75705;DHT22;64391;44.686;37.628;2022-11-12T05:16:11;7.02;89.78
75705;DHT22;64391;44.686;37.628;2022-11-12T05:17:31;7.08;89.83
75705;DHT22;64391;44.686;37.628;2022-11-12T05:18:51;7.16;89.25
75705;DHT22;64391;44.686;37.628;2022-11-12T05:20:11;7.25;89.16
75705;DHT22;64391;44.686;37.628;2022-11-12T05:21:32;7.29;89.00
75705;DHT22;64391;44.686;37.628;2022-11-12T05:23:11;7.33;88.91
75705;DHT22;64391;44.686;37.628;2022-11-12T05:24:32;7.34;88.54
75705;DHT22;64391;44.686;37.628;2022-11-12T05:25:52;7.40;88.54
75705;DHT22;64391;44.686;37.628;2022-11-12T05:27:15;7.42;88.27
75705;DHT22;64391;44.686;37.628;2022-11-12T05:28:35;7.46;88.27
75705;DHT22;64391;44.686;37.628;2022-11-12T05:29:55;7.53;88.23
75705;DHT22;64391;44.686;37.628;2022-11-12T05:31:15;7.56;87.76
75705;DHT22;64391;44.686;37.628;2022-11-12T05:32:35;7.59;87.98
75705;DHT22;64391;44.686;37.628;2022-11-12T05:33:55;7.57;87.86
75705;DHT22;64391;44.686;37.628;2022-11-12T05:35:15;7.58;87.62
75705;DHT22;64391;44.686;37.628;2022-11-12T05:36:35;7.60;87.51
75705;DHT22;64391;44.686;37.628;2022-11-12T05:37:54;7.61;87.62
75705;DHT22;64391;44.686;37.628;2022-11-12T05:39:14;7.61;87.89
75705;DHT22;64391;44.686;37.628;2022-11-12T05:40:34;7.65;87.72
75705;DHT22;64391;44.686;37.628;2022-11-12T05:41:54;7.70;87.72
75705;DHT22;64391;44.686;37.628;2022-11-12T05:43:14;7.74;87.59
75705;DHT22;64391;44.686;37.628;2022-11-12T05:44:34;7.79;87.21
75705;DHT22;64391;44.686;37.628;2022-11-12T05:45:54;7.85;87.25
75705;DHT22;64391;44.686;37.628;2022-11-12T05:47:14;7.89;87.32
75705;DHT22;64391;44.686;37.628;2022-11-12T05:48:35;7.96;86.97
75705;DHT22;64391;44.686;37.628;2022-11-12T05:49:55;7.97;87.28
75705;DHT22;64391;44.686;37.628;2022-11-12T05:51:14;8.01;86.90
75705;DHT22;64391;44.686;37.628;2022-11-12T05:52:35;8.07;86.95
75705;DHT22;64391;44.686;37.628;2022-11-12T05:53:55;8.12;86.51
75705;DHT22;64391;44.686;37.628;2022-11-12T05:55:15;8.16;86.48
75705;DHT22;64391;44.686;37.628;2022-11-12T05:56:36;8.17;86.57
75705;DHT22;64391;44.686;37.628;2022-11-12T05:57:56;8.19;86.64
75705;DHT22;64391;44.686;37.628;2022-11-12T05:59:16;8.24;86.22
75705;DHT22;64391;44.686;37.628;2022-11-12T06:00:36;8.29;86.37
75705;DHT22;64391;44.686;37.628;2022-11-12T06:01:59;8.33;86.77
75705;DHT22;64391;44.686;37.628;2022-11-12T06:03:19;8.37;86.26
75705;DHT22;64391;44.686;37.628;2022-11-12T06:04:39;8.42;86.50
75705;DHT22;64391;44.686;37.628;2022-11-12T06:05:58;8.46;86.40
75705;DHT22;64391;44.686;37.628;2022-11-12T06:07:18;8.48;86.07
75705;DHT22;64391;44.686;37.628;2022-11-12T06:08:38;8.53;85.45
75705;DHT22;64391;44.686;37.628;2022-11-12T06:09:58;8.59;85.74
75705;DHT22;64391;44.686;37.628;2022-11-12T06:11:18;8.60;85.84
75705;DHT22;64391;44.686;37.628;2022-11-12T06:12:38;8.63;85.47
75705;DHT22;64391;44.686;37.628;2022-11-12T06:13:59;8.71;85.61
75705;DHT22;64391;44.686;37.628;2022-11-12T06:15:19;8.73;85.51
75705;DHT22;64391;44.686;37.628;2022-11-12T06:16:39;8.77;85.33
75705;DHT22;64391;44.686;37.628;2022-11-12T06:17:59;8.82;85.01
75705;DHT22;64391;44.686;37.628;2022-11-12T06:19:19;8.87;85.26
75705;DHT22;64391;44.686;37.628;2022-11-12T06:20:39;8.92;84.71
75705;DHT22;64391;44.686;37.628;2022-11-12T06:21:59;8.97;85.26
75705;DHT22;64391;44.686;37.628;2022-11-12T06:23:19;9.02;84.77
75705;DHT22;64391;44.686;37.628;2022-11-12T06:24:39;9.07;84.82
75705;DHT22;64391;44.686;37.628;2022-11-12T06:25:58;9.11;85.12
75705;DHT22;64391;44.686;37.628;2022-11-12T06:27:18;9.19;84.47
75705;DHT22;64391;44.686;37.628;2022-11-12T06:28:38;9.26;84.98
75705;DHT22;64391;44.686;37.628;2022-11-12T06:29:58;9.32;84.12
75705;DHT22;64391;44.686;37.628;2022-11-12T06:31:19;9.38;84.12
75705;DHT22;64391;44.686;37.628;2022-11-12T06:32:39;9.42;83.20
75705;DHT22;64391;44.686;37.628;2022-11-12T06:33:59;9.45;82.94
75705;DHT22;64391;44.686;37.628;2022-11-12T06:35:19;9.51;82.91
75705;DHT22;64391;44.686;37.628;2022-11-12T06:36:39;9.55;83.07
75705;DHT22;64391;44.686;37.628;2022-11-12T06:37:59;9.59;82.14
75705;DHT22;64391;44.686;37.628;2022-11-12T06:39:18;9.68;82.52
75705;DHT22;64391;44.686;37.628;2022-11-12T06:40:40;9.74;82.34
75705;DHT22;64391;44.686;37.628;2022-11-12T06:42:00;9.79;82.44
75705;DHT22;64391;44.686;37.628;2022-11-12T06:43:21;9.84;81.57
75705;DHT22;64391;44.686;37.628;2022-11-12T06:44:41;9.89;81.62
75705;DHT22;64391;44.686;37.628;2022-11-12T06:46:04;9.92;80.91
75705;DHT22;64391;44.686;37.628;2022-11-12T06:47:24;9.95;80.72
75705;DHT22;64391;44.686;37.628;2022-11-12T06:48:44;9.99;80.69
75705;DHT22;64391;44.686;37.628;2022-11-12T06:50:04;10.06;80.77
75705;DHT22;64391;44.686;37.628;2022-11-12T06:51:24;10.10;80.98
75705;DHT22;64391;44.686;37.628;2022-11-12T06:52:44;10.16;80.15
75705;DHT22;64391;44.686;37.628;2022-11-12T06:54:05;10.19;79.37
75705;DHT22;64391;44.686;37.628;2022-11-12T06:55:25;10.23;80.36
75705;DHT22;64391;44.686;37.628;2022-11-12T06:56:45;10.28;78.82
75705;DHT22;64391;44.686;37.628;2022-11-12T06:58:04;10.30;78.87
75705;DHT22;64391;44.686;37.628;2022-11-12T06:59:24;10.34;79.38
75705;DHT22;64391;44.686;37.628;2022-11-12T07:00:44;10.38;79.00
75705;DHT22;64391;44.686;37.628;2022-11-12T07:02:05;10.45;78.53
75705;DHT22;64391;44.686;37.628;2022-11-12T07:03:25;10.50;77.85
75705;DHT22;64391;44.686;37.628;2022-11-12T07:04:45;10.57;78.35
75705;DHT22;64391;44.686;37.628;2022-11-12T07:06:07;10.67;78.23
75705;DHT22;64391;44.686;37.628;2022-11-12T07:07:28;10.71;78.08
75705;DHT22;64391;44.686;37.628;2022-11-12T07:08:49;10.90;78.01
75705;DHT22;64391;44.686;37.628;2022-11-12T07:10:09;10.98;78.53
75705;DHT22;64391;44.686;37.628;2022-11-12T07:11:29;10.99;77.05
75705;DHT22;64391;44.686;37.628;2022-11-12T07:12:52;11.02;76.47
75705;DHT22;64391;44.686;37.628;2022-11-12T07:14:12;11.08;76.66
75705;DHT22;64391;44.686;37.628;2022-11-12T07:15:32;11.14;76.67
75705;DHT22;64391;44.686;37.628;2022-11-12T07:16:52;11.26;75.45
75705;DHT22;64391;44.686;37.628;2022-11-12T07:18:12;11.28;75.84
75705;DHT22;64391;44.686;37.628;2022-11-12T07:19:32;11.42;75.43
75705;DHT22;64391;44.686;37.628;2022-11-12T07:21:01;11.52;76.32
75705;DHT22;64391;44.686;37.628;2022-11-12T07:22:22;11.58;76.32
75705;DHT22;64391;44.686;37.628;2022-11-12T07:23:42;11.64;75.23
75705;DHT22;64391;44.686;37.628;2022-11-12T07:25:03;11.72;74.70
75705;DHT22;64391;44.686;37.628;2022-11-12T07:26:26;11.70;74.45
75705;DHT22;64391;44.686;37.628;2022-11-12T07:27:46;11.73;73.49
75705;DHT22;64391;44.686;37.628;2022-11-12T07:29:06;11.79;73.88
75705;DHT22;64391;44.686;37.628;2022-11-12T07:30:26;11.83;74.24
75705;DHT22;64391;44.686;37.628;2022-11-12T07:31:46;11.87;73.35
75705;DHT22;64391;44.686;37.628;2022-11-12T07:33:06;11.98;74.57
75705;DHT22;64391;44.686;37.628;2022-11-12T07:34:26;12.16;75.69
75705;DHT22;64391;44.686;37.628;2022-11-12T07:35:46;12.30;73.56
75705;DHT22;64391;44.686;37.628;2022-11-12T07:37:06;12.36;73.99
75705;DHT22;64391;44.686;37.628;2022-11-12T07:38:28;12.49;74.76
75705;DHT22;64391;44.686;37.628;2022-11-12T07:39:48;12.72;74.35
75705;DHT22;64391;44.686;37.628;2022-11-12T07:41:15;12.84;72.27
75705;DHT22;64391;44.686;37.628;2022-11-12T07:42:35;12.87;71.99
75705;DHT22;64391;44.686;37.628;2022-11-12T07:43:55;12.95;73.03
75705;DHT22;64391;44.686;37.628;2022-11-12T07:45:15;13.04;70.27
75705;DHT22;64391;44.686;37.628;2022-11-12T07:46:35;13.15;71.86
75705;DHT22;64391;44.686;37.628;2022-11-12T07:47:58;13.30;70.35
75705;DHT22;64391;44.686;37.628;2022-11-12T07:49:17;13.46;70.21
75705;DHT22;64391;44.686;37.628;2022-11-12T07:50:37;13.45;70.23
75705;DHT22;64391;44.686;37.628;2022-11-12T07:51:57;13.47;69.79
75705;DHT22;64391;44.686;37.628;2022-11-12T07:53:17;13.52;70.47
75705;DHT22;64391;44.686;37.628;2022-11-12T07:54:37;13.58;70.29
75705;DHT22;64391;44.686;37.628;2022-11-12T07:55:59;13.61;69.74
75705;DHT22;64391;44.686;37.628;2022-11-12T07:57:19;13.66;69.39
75705;DHT22;64391;44.686;37.628;2022-11-12T07:58:39;13.73;69.24
75705;DHT22;64391;44.686;37.628;2022-11-12T07:59:59;13.90;68.64
75705;DHT22;64391;44.686;37.628;2022-11-12T08:01:36;13.98;68.23
75705;DHT22;64391;44.686;37.628;2022-11-12T08:02:58;14.01;69.04
75705;DHT22;64391;44.686;37.628;2022-11-12T08:04:20;14.12;67.95
75705;DHT22;64391;44.686;37.628;2022-11-12T08:05:39;14.08;67.55
75705;DHT22;64391;44.686;37.628;2022-11-12T08:06:59;14.05;68.11
75705;DHT22;64391;44.686;37.628;2022-11-12T08:08:19;14.09;68.07
75705;DHT22;64391;44.686;37.628;2022-11-12T08:09:39;14.06;69.08
75705;DHT22;64391;44.686;37.628;2022-11-12T08:10:59;14.09;67.97
75705;DHT22;64391;44.686;37.628;2022-11-12T08:12:19;14.07;68.05
75705;DHT22;64391;44.686;37.628;2022-11-12T08:13:39;14.18;68.07
75705;DHT22;64391;44.686;37.628;2022-11-12T08:14:59;14.17;67.72
75705;DHT22;64391;44.686;37.628;2022-11-12T08:16:19;14.20;68.55
75705;DHT22;64391;44.686;37.628;2022-11-12T08:17:39;14.25;68.38
75705;DHT22;64391;44.686;37.628;2022-11-12T08:18:59;14.28;68.33
75705;DHT22;64391;44.686;37.628;2022-11-12T08:20:20;14.30;67.97
75705;DHT22;64391;44.686;37.628;2022-11-12T08:21:40;14.34;68.47
75705;DHT22;64391;44.686;37.628;2022-11-12T08:23:00;14.34;67.62
75705;DHT22;64391;44.686;37.628;2022-11-12T08:24:19;14.40;67.99
75705;DHT22;64391;44.686;37.628;2022-11-12T08:25:39;14.43;67.88
75705;DHT22;64391;44.686;37.628;2022-11-12T08:26:59;14.44;67.72
75705;DHT22;64391;44.686;37.628;2022-11-12T08:28:19;14.50;67.33
75705;DHT22;64391;44.686;37.628;2022-11-12T08:29:39;14.48;67.65
75705;DHT22;64391;44.686;37.628;2022-11-12T08:31:08;14.51;67.58
75705;DHT22;64391;44.686;37.628;2022-11-12T08:32:28;14.52;66.99